createdAt,value
2019-03-25T00:01:05.493Z,100722.18
2019-03-25T00:03:36.680Z,100720.09
2019-03-25T00:06:07.949Z,100727.70
2019-03-25T00:08:38.987Z,100725.25
2019-03-25T00:11:10.341Z,100729.79
2019-03-25T00:13:41.273Z,100717.41
2019-03-25T00:16:13.289Z,100718.16
2019-03-25T00:18:44.434Z,100712.42
2019-03-25T00:21:15.702Z,100708.92
2019-03-25T00:23:46.741Z,100709.90
2019-03-25T00:26:17.932Z,100699.14
2019-03-25T00:28:50.088Z,100694.09
2019-03-25T00:31:22.427Z,100687.80
2019-03-25T00:33:53.582Z,100680.36
2019-03-25T00:36:24.626Z,100678.34
2019-03-25T00:38:55.744Z,100673.32
2019-03-25T00:41:27.832Z,100666.70
2019-03-25T00:43:59.143Z,100655.95
2019-03-25T00:46:49.824Z,100656.34
2019-03-25T00:49:20.865Z,100661.98
2019-03-25T00:51:52.022Z,100652.86
2019-03-25T00:54:23.051Z,100646.23
2019-03-25T00:56:54.419Z,100643.06
2019-03-25T00:59:25.409Z,100635.45
2019-03-25T01:01:56.422Z,100632.08
2019-03-25T01:04:27.676Z,100630.01
2019-03-25T01:06:58.620Z,100629.61
2019-03-25T01:09:29.534Z,100629.50
2019-03-25T01:12:00.889Z,100619.72
2019-03-25T01:14:31.958Z,100617.64
2019-03-25T01:17:04.653Z,100618.34
2019-03-25T01:19:36.047Z,100615.80
2019-03-25T01:22:07.128Z,100619.58
2019-03-25T01:24:38.308Z,100619.88
2019-03-25T01:27:09.505Z,100616.44
2019-03-25T01:29:40.599Z,100607.91
2019-03-25T01:32:11.667Z,100612.90
2019-03-25T01:34:43.197Z,100601.52
2019-03-25T01:37:14.336Z,100600.09
2019-03-25T01:39:45.417Z,100597.56
2019-03-25T01:42:16.452Z,100594.47
2019-03-25T01:44:47.896Z,100598.66
2019-03-25T01:47:18.911Z,100598.42
2019-03-25T01:49:51.012Z,100593.61
2019-03-25T01:52:22.478Z,100590.89
2019-03-25T01:54:53.485Z,100593.03
2019-03-25T01:57:26.457Z,100585.61
2019-03-25T01:59:57.388Z,100587.03
2019-03-25T02:02:28.684Z,100579.37
2019-03-25T02:05:00.037Z,100580.52
2019-03-25T02:07:31.294Z,100577.98
2019-03-25T02:10:02.260Z,100575.05
2019-03-25T02:12:33.523Z,100573.89
2019-03-25T02:15:04.540Z,100566.52
2019-03-25T02:17:37.511Z,100560.15
2019-03-25T02:20:08.625Z,100558.34
2019-03-25T02:22:40.100Z,100555.83
2019-03-25T02:25:11.387Z,100549.42
2019-03-25T02:27:42.346Z,100554.00
2019-03-25T02:30:13.594Z,100553.03
2019-03-25T02:32:44.776Z,100543.22
2019-03-25T02:35:16.129Z,100538.99
2019-03-25T02:37:47.612Z,100531.56
2019-03-25T02:40:18.732Z,100527.33
2019-03-25T02:42:49.845Z,100517.19
2019-03-25T02:45:21.399Z,100517.63
2019-03-25T02:47:52.502Z,100512.93
2019-03-25T02:50:23.611Z,100514.86
2019-03-25T02:52:54.753Z,100505.80
2019-03-25T02:55:40.489Z,100513.28
2019-03-25T02:57:59.151Z,100510.83
2019-03-25T03:00:37.748Z,100506.56
2019-03-25T03:03:09.873Z,100503.45
2019-03-25T03:05:41.122Z,100506.62
2019-03-25T03:08:12.613Z,100495.19
2019-03-25T03:10:43.723Z,100497.27
2019-03-25T03:13:16.037Z,100501.14
2019-03-25T03:15:47.359Z,100497.45
2019-03-25T03:18:19.566Z,100493.30
2019-03-25T03:20:50.611Z,100497.11
2019-03-25T03:23:21.919Z,100493.64
2019-03-25T03:25:57.593Z,100491.41
2019-03-25T03:28:25.730Z,100481.48
2019-03-25T03:30:56.785Z,100479.62
2019-03-25T03:33:27.951Z,100480.98
2019-03-25T03:35:59.187Z,100479.94
2019-03-25T03:38:30.570Z,100483.50
2019-03-25T03:41:01.559Z,100479.21
2019-03-25T03:43:32.704Z,100478.05
2019-03-25T03:46:03.913Z,100480.13
2019-03-25T03:48:34.985Z,100476.75
2019-03-25T03:51:07.953Z,100483.72
2019-03-25T03:53:39.128Z,100474.23
2019-03-25T03:56:13.631Z,100471.59
2019-03-25T03:58:45.087Z,100468.09
2019-03-25T04:01:16.149Z,100471.46
2019-03-25T04:03:47.236Z,100466.45
2019-03-25T04:06:18.369Z,100464.67
2019-03-25T04:08:49.351Z,100465.58
2019-03-25T04:11:20.525Z,100458.86
2019-03-25T04:13:51.972Z,100465.09
2019-03-25T04:16:22.966Z,100458.22
2019-03-25T04:18:55.012Z,100464.83
2019-03-25T04:21:26.051Z,100464.39
2019-03-25T04:23:57.680Z,100465.73
2019-03-25T04:26:29.695Z,100467.73
2019-03-25T04:29:00.828Z,100460.17
2019-03-25T04:31:31.804Z,100458.73
2019-03-25T04:34:03.715Z,100454.75
2019-03-25T04:36:34.868Z,100454.09
2019-03-25T04:39:07.321Z,100451.80
2019-03-25T04:41:38.600Z,100449.18
2019-03-25T04:44:09.815Z,100448.84
2019-03-25T04:46:40.968Z,100451.04
2019-03-25T04:49:13.531Z,100443.18
2019-03-25T04:51:45.091Z,100439.64
2019-03-25T04:54:16.832Z,100440.65
2019-03-25T04:56:47.835Z,100435.07
2019-03-25T04:59:19.065Z,100433.43
2019-03-25T05:01:50.165Z,100432.77
2019-03-25T05:04:21.701Z,100431.85
2019-03-25T05:06:52.932Z,100429.23
2019-03-25T05:09:23.952Z,100424.88
2019-03-25T05:11:55.604Z,100430.41
2019-03-25T05:14:27.129Z,100420.19
2019-03-25T05:16:58.237Z,100416.52
2019-03-25T05:19:31.759Z,100404.75
2019-03-25T05:22:02.713Z,100404.75
2019-03-25T05:24:33.645Z,100276.36
2019-03-25T05:27:04.823Z,100391.88
2019-03-25T05:29:35.802Z,100407.03
2019-03-25T05:32:06.855Z,100400.56
2019-03-25T05:34:39.006Z,100399.11
2019-03-25T05:37:10.268Z,100390.71
2019-03-25T05:39:41.288Z,100387.37
2019-03-25T05:42:12.555Z,100388.30
2019-03-25T05:44:44.047Z,100388.48
2019-03-25T05:47:16.725Z,100387.42
2019-03-25T05:49:48.122Z,100380.24
2019-03-25T05:52:19.785Z,100375.52
2019-03-25T05:54:50.933Z,100383.50
2019-03-25T05:57:22.150Z,100369.52
2019-03-25T05:59:54.145Z,100374.59
2019-03-25T06:02:25.279Z,100376.91
2019-03-25T06:04:56.415Z,100380.13
2019-03-25T06:07:28.505Z,100384.33
2019-03-25T06:10:00.047Z,100377.50
2019-03-25T06:12:31.104Z,100377.03
2019-03-25T06:15:04.469Z,100364.17
2019-03-25T06:17:35.728Z,100359.70
2019-03-25T06:20:07.123Z,100365.61
2019-03-25T06:22:38.197Z,100367.98
2019-03-25T06:25:09.789Z,100366.37
2019-03-25T06:27:40.958Z,100366.02
2019-03-25T06:30:13.035Z,100363.25
2019-03-25T06:32:44.028Z,100361.72
2019-03-25T06:35:15.841Z,100356.25
2019-03-25T06:37:46.909Z,100359.77
2019-03-25T06:40:18.035Z,100351.83
2019-03-25T06:42:49.675Z,100346.63
2019-03-25T06:45:21.946Z,100341.70
2019-03-25T06:47:53.004Z,100345.27
2019-03-25T06:50:24.165Z,100343.90
2019-03-25T06:52:55.219Z,100337.47
2019-03-25T06:55:26.430Z,100338.64
2019-03-25T06:57:57.469Z,100334.25
2019-03-25T07:00:29.149Z,100335.66
2019-03-25T07:03:03.059Z,100332.81
2019-03-25T07:05:35.317Z,100331.95
2019-03-25T07:08:06.354Z,100329.50
2019-03-25T07:10:38.275Z,100337.03
2019-03-25T07:13:10.434Z,100330.84
2019-03-25T07:15:44.182Z,100331.59
2019-03-25T07:18:15.614Z,100330.48
2019-03-25T07:20:46.817Z,100328.84
2019-03-25T07:23:17.843Z,100330.75
2019-03-25T07:25:49.018Z,100329.70
2019-03-25T07:28:20.399Z,100329.52
2019-03-25T07:30:51.686Z,100324.42
2019-03-25T07:33:22.927Z,100321.86
2019-03-25T07:35:54.182Z,100324.44
2019-03-25T07:38:26.257Z,100333.28
2019-03-25T07:40:57.636Z,100328.17
2019-03-25T07:43:30.083Z,100337.08
2019-03-25T07:46:01.166Z,100333.63
2019-03-25T07:48:32.458Z,100327.23
2019-03-25T07:51:03.653Z,100328.62
2019-03-25T07:53:34.763Z,100332.36
2019-03-25T07:56:06.122Z,100325.96
2019-03-25T07:58:37.543Z,100326.81
2019-03-25T08:01:09.829Z,100323.85
2019-03-25T08:03:40.823Z,100325.29
2019-03-25T08:06:12.188Z,100326.89
2019-03-25T08:08:43.456Z,100320.84
2019-03-25T08:11:14.651Z,100318.94
2019-03-25T08:13:46.066Z,100318.00
2019-03-25T08:16:17.294Z,100319.72
2019-03-25T08:18:48.350Z,100311.70
2019-03-25T08:21:19.803Z,100317.03
2019-03-25T08:23:50.822Z,100304.42
2019-03-25T08:26:22.718Z,100292.34
2019-03-25T08:28:53.966Z,100291.02
2019-03-25T08:31:25.283Z,100282.69
2019-03-25T08:33:56.485Z,100280.21
2019-03-25T08:36:27.602Z,100270.77
2019-03-25T08:38:58.495Z,100271.50
2019-03-25T08:41:29.975Z,100269.74
2019-03-25T08:44:00.807Z,100263.03
2019-03-25T08:46:31.541Z,100256.73
2019-03-25T08:49:02.845Z,100256.82
2019-03-25T08:51:33.664Z,100254.26
2019-03-25T08:54:04.608Z,100256.30
2019-03-25T08:56:35.737Z,100255.07
2019-03-25T08:59:06.687Z,100250.41
2019-03-25T09:01:37.489Z,100254.09
2019-03-25T09:04:08.687Z,100250.68
2019-03-25T09:06:40.518Z,100245.45
2019-03-25T09:09:11.449Z,100241.66
2019-03-25T09:11:43.278Z,100240.60
2019-03-25T09:14:14.242Z,100235.55
2019-03-25T09:16:45.192Z,100232.52
2019-03-25T09:19:16.452Z,100224.66
2019-03-25T09:21:47.494Z,100213.28
2019-03-25T09:24:18.623Z,100210.88
2019-03-25T09:26:49.674Z,100211.34
2019-03-25T09:29:20.367Z,100204.78
2019-03-25T09:31:52.909Z,100207.02
2019-03-25T09:34:23.997Z,100199.16
2019-03-25T09:36:59.937Z,100202.34
2019-03-25T09:39:40.201Z,100192.78
2019-03-25T09:42:12.113Z,100186.55
2019-03-25T09:44:42.913Z,100187.36
2019-03-25T09:47:14.051Z,100182.53
2019-03-25T09:49:44.985Z,100192.91
2019-03-25T09:52:15.922Z,100188.20
2019-03-25T09:54:46.917Z,100189.64
2019-03-25T09:57:19.528Z,100186.34
2019-03-25T09:59:51.324Z,100177.25
2019-03-25T10:02:22.176Z,100181.59
2019-03-25T10:04:52.897Z,100176.34
2019-03-25T10:07:28.287Z,100181.70
2019-03-25T10:09:58.370Z,100176.34
2019-03-25T10:12:29.258Z,100173.75
2019-03-25T10:15:00.652Z,100177.36
2019-03-25T10:17:31.746Z,100167.45
2019-03-25T10:20:02.754Z,100168.91
2019-03-25T10:22:34.276Z,100160.50
2019-03-25T10:25:06.773Z,100166.16
2019-03-25T10:27:37.813Z,100158.03
2019-03-25T10:30:09.539Z,100157.61
2019-03-25T10:32:40.807Z,100158.92
2019-03-25T10:35:12.215Z,100156.61
2019-03-25T10:37:43.336Z,100153.32
2019-03-25T10:40:14.744Z,100139.28
2019-03-25T10:42:45.893Z,100141.33
2019-03-25T10:45:18.260Z,100142.40
2019-03-25T10:47:49.417Z,100141.43
2019-03-25T10:50:20.589Z,100146.11
2019-03-25T10:52:51.660Z,100149.80
2019-03-25T10:55:23.240Z,100147.42
2019-03-25T10:57:54.351Z,100139.92
2019-03-25T11:00:25.471Z,100136.36
2019-03-25T11:02:58.324Z,100137.39
2019-03-25T11:05:29.518Z,100135.63
2019-03-25T11:08:00.937Z,100129.55
2019-03-25T11:10:33.557Z,100128.01
2019-03-25T11:13:04.431Z,100121.94
2019-03-25T11:15:36.792Z,100119.31
2019-03-25T11:18:08.164Z,100119.06
2019-03-25T11:20:39.433Z,100127.65
2019-03-25T11:23:10.526Z,100115.98
2019-03-25T11:25:43.377Z,100114.42
2019-03-25T11:28:14.513Z,100108.95
2019-03-25T11:31:02.205Z,100107.54
2019-03-25T11:33:35.241Z,100099.80
2019-03-25T11:36:06.738Z,100098.22
2019-03-25T11:38:37.599Z,100094.55
2019-03-25T11:41:08.928Z,100091.68
2019-03-25T11:43:41.019Z,100099.40
2019-03-25T11:46:11.915Z,100089.52
2019-03-25T11:48:42.994Z,100091.06
2019-03-25T11:51:13.960Z,100095.09
2019-03-25T11:53:44.814Z,100089.55
2019-03-25T11:56:17.011Z,100082.80
2019-03-25T11:58:48.082Z,100077.44
2019-03-25T12:01:19.377Z,100075.43
2019-03-25T12:03:51.216Z,100076.23
2019-03-25T12:06:22.103Z,100068.55
2019-03-25T12:08:54.252Z,100068.68
2019-03-25T12:11:25.236Z,100068.09
2019-03-25T12:13:56.021Z,100059.04
2019-03-25T12:16:27.765Z,100068.38
2019-03-25T12:18:58.534Z,100057.13
2019-03-25T12:21:29.369Z,100055.35
2019-03-25T12:24:00.420Z,100058.19
2019-03-25T12:26:32.498Z,100047.95
2019-03-25T12:29:03.481Z,100049.64
2019-03-25T12:31:34.652Z,100043.34
2019-03-25T12:34:05.916Z,100042.12
2019-03-25T12:36:37.050Z,100038.81
2019-03-25T12:39:11.582Z,100038.09
2019-03-25T12:41:43.023Z,100028.91
2019-03-25T12:44:14.476Z,100023.63
2019-03-25T12:46:45.593Z,100019.06
2019-03-25T12:49:16.690Z,100020.35
2019-03-25T12:51:48.654Z,100015.41
2019-03-25T12:54:20.271Z,99995.12
2019-03-25T12:56:51.107Z,100013.52
2019-03-25T12:59:22.148Z,100011.20
2019-03-25T13:01:53.523Z,100002.41
2019-03-25T13:04:24.842Z,99997.92
2019-03-25T13:06:57.493Z,100001.51
2019-03-25T13:09:28.694Z,100004.73
2019-03-25T13:12:00.241Z,100000.66
2019-03-25T13:14:31.677Z,99992.97
2019-03-25T13:17:02.693Z,99989.11
2019-03-25T13:19:33.448Z,99988.38
2019-03-25T13:22:04.594Z,99982.81
2019-03-25T13:24:36.145Z,99986.53
2019-03-25T13:27:08.428Z,99988.42
2019-03-25T13:29:39.447Z,99987.73
2019-03-25T13:32:10.828Z,99976.05
2019-03-25T13:34:41.842Z,99980.91
2019-03-25T13:37:12.785Z,99977.06
2019-03-25T13:39:43.517Z,99968.98
2019-03-25T13:42:15.186Z,99971.91
2019-03-25T13:44:46.576Z,99964.66
2019-03-25T13:47:17.573Z,99966.29
2019-03-25T13:49:48.442Z,99968.97
2019-03-25T13:52:20.371Z,99961.36
2019-03-25T13:54:51.841Z,99959.35
2019-03-25T13:57:23.254Z,99962.27
2019-03-25T14:00:02.906Z,99958.23
2019-03-25T14:02:27.086Z,99946.92
2019-03-25T14:04:59.530Z,99943.86
2019-03-25T14:07:30.688Z,99947.23
2019-03-25T14:10:01.802Z,99943.61
2019-03-25T14:12:32.854Z,99947.06
2019-03-25T14:15:04.091Z,99950.84
2019-03-25T14:17:35.201Z,99950.98
2019-03-25T14:20:07.021Z,99953.64
2019-03-25T14:22:38.430Z,99941.19
2019-03-25T14:25:10.371Z,99949.00
2019-03-25T14:27:42.355Z,99945.92
2019-03-25T14:30:15.141Z,99937.16
2019-03-25T14:32:46.183Z,99938.04
2019-03-25T14:35:17.221Z,99937.08
2019-03-25T14:37:48.197Z,99939.43
2019-03-25T14:40:19.197Z,99937.66
2019-03-25T14:42:49.935Z,99941.72
2019-03-25T14:45:26.277Z,99946.72
2019-03-25T14:47:53.287Z,99944.95
2019-03-25T14:50:24.463Z,99939.84
2019-03-25T14:52:55.438Z,99936.64
2019-03-25T14:55:27.931Z,99935.83
2019-03-25T14:57:59.000Z,99937.34
2019-03-25T15:00:30.313Z,99938.03
2019-03-25T15:03:02.022Z,99936.15
2019-03-25T15:05:33.213Z,99935.56
2019-03-25T15:08:04.123Z,99932.72
2019-03-25T15:10:35.483Z,99931.53
2019-03-25T15:13:07.361Z,99933.68
2019-03-25T15:15:38.537Z,99928.11
2019-03-25T15:18:15.448Z,99923.32
2019-03-25T15:20:43.003Z,99927.73
2019-03-25T15:23:15.032Z,99925.30
2019-03-25T15:25:45.840Z,99930.17
2019-03-25T15:28:17.863Z,99931.02
2019-03-25T15:30:49.304Z,99932.84
2019-03-25T15:33:20.558Z,99931.77
2019-03-25T15:35:51.621Z,99934.28
2019-03-25T15:38:22.617Z,99927.63
2019-03-25T15:40:53.595Z,99923.45
2019-03-25T15:43:24.569Z,99929.40
2019-03-25T15:45:55.746Z,99916.13
2019-03-25T15:48:26.788Z,99916.47
2019-03-25T15:50:58.164Z,99911.71
2019-03-25T15:53:29.229Z,99915.04
2019-03-25T15:56:00.306Z,99906.55
2019-03-25T15:58:31.353Z,99904.86
2019-03-25T16:01:02.493Z,99905.47
2019-03-25T16:03:33.799Z,99912.50
2019-03-25T16:06:04.835Z,99910.63
2019-03-25T16:08:36.200Z,99918.06
2019-03-25T16:11:07.702Z,99909.20
2019-03-25T16:13:39.360Z,99903.95
2019-03-25T16:16:10.341Z,99899.69
2019-03-25T16:18:42.755Z,99901.05
2019-03-25T16:21:13.912Z,99909.22
2019-03-25T16:23:45.134Z,99909.22
2019-03-25T16:26:16.302Z,99906.48
2019-03-25T16:28:48.049Z,99909.31
2019-03-25T16:31:20.135Z,99908.47
2019-03-25T16:33:50.903Z,99908.47
2019-03-25T16:36:22.459Z,99900.78
2019-03-25T16:38:53.507Z,99890.63
2019-03-25T16:41:24.312Z,99896.25
2019-03-25T16:43:55.137Z,99882.41
2019-03-25T16:46:26.164Z,99882.41
2019-03-25T16:48:56.911Z,99876.69
2019-03-25T16:51:27.855Z,99879.23
2019-03-25T16:54:00.562Z,99871.66
2019-03-25T16:56:31.878Z,99857.98
2019-03-25T16:59:02.772Z,99876.98
2019-03-25T17:01:33.770Z,99876.98
2019-03-25T17:04:04.586Z,99869.79
2019-03-25T17:06:35.607Z,99872.72
2019-03-25T17:09:08.222Z,99872.72
2019-03-25T17:11:39.179Z,99885.42
2019-03-25T17:14:12.159Z,99885.42
2019-03-25T17:16:44.364Z,99867.97
2019-03-25T17:19:15.438Z,99873.34
2019-03-25T17:21:57.427Z,99868.27
2019-03-25T17:24:19.086Z,99869.09
2019-03-25T17:26:50.295Z,99865.13
2019-03-25T17:29:21.369Z,99868.62
2019-03-25T17:31:52.554Z,99868.62
2019-03-25T17:34:23.352Z,99855.44
2019-03-25T17:36:54.245Z,99864.16
2019-03-25T17:39:25.481Z,99870.95
2019-03-25T17:41:56.476Z,99861.16
2019-03-25T17:44:27.260Z,99863.12
2019-03-25T17:46:58.538Z,99857.30
2019-03-25T17:49:29.651Z,99861.22
2019-03-25T17:52:00.510Z,99857.69
2019-03-25T17:54:31.830Z,99858.72
2019-03-25T17:57:04.537Z,99858.26
2019-03-25T17:59:35.521Z,99858.26
2019-03-25T18:02:06.620Z,99856.00
2019-03-25T18:04:41.043Z,99856.00
2019-03-25T18:07:13.374Z,99856.91
2019-03-25T18:09:44.494Z,99857.93
2019-03-25T18:12:15.814Z,99854.98
2019-03-25T18:14:46.888Z,99854.57
2019-03-25T18:17:18.076Z,99865.34
2019-03-25T18:19:48.870Z,99855.70
2019-03-25T18:22:19.712Z,99866.86
2019-03-25T18:24:51.035Z,99856.61
2019-03-25T18:27:21.945Z,99859.05
2019-03-25T18:29:53.015Z,99854.62
2019-03-25T18:32:25.232Z,99858.91
2019-03-25T18:34:56.386Z,99861.13
2019-03-25T18:37:27.274Z,99861.13
2019-03-25T18:39:58.445Z,99860.80
2019-03-25T18:42:29.780Z,99860.80
2019-03-25T18:45:02.409Z,99871.83
2019-03-25T18:47:33.710Z,99870.24
2019-03-25T18:50:04.919Z,99866.34
2019-03-25T18:52:36.808Z,99866.31
2019-03-25T18:55:07.895Z,99866.31
2019-03-25T18:57:38.881Z,99873.28
2019-03-25T19:00:10.477Z,99876.91
2019-03-25T19:02:41.398Z,99876.91
2019-03-25T19:05:12.629Z,99874.20
2019-03-25T19:07:46.084Z,99874.20
2019-03-25T19:10:21.372Z,99872.48
2019-03-25T19:12:52.715Z,99872.48
2019-03-25T19:15:23.904Z,99862.03
2019-03-25T19:17:54.911Z,99859.13
2019-03-25T19:20:25.920Z,99860.14
2019-03-25T19:22:56.663Z,99862.42
2019-03-25T19:25:27.906Z,99857.44
2019-03-25T19:27:59.713Z,99860.60
2019-03-25T19:30:30.400Z,99863.91
2019-03-25T19:33:01.523Z,99864.09
2019-03-25T19:35:32.955Z,99864.97
2019-03-25T19:38:04.026Z,99866.48
2019-03-25T19:40:35.237Z,99861.59
2019-03-25T19:43:06.247Z,99862.25
2019-03-25T19:45:37.248Z,99862.53
2019-03-25T19:48:08.283Z,99862.53
2019-03-25T19:50:39.305Z,99861.91
2019-03-25T19:53:19.040Z,99859.09
2019-03-25T19:55:43.686Z,99859.30
2019-03-25T19:58:14.618Z,99854.66
2019-03-25T20:00:45.616Z,99854.66
2019-03-25T20:03:16.385Z,99856.73
2019-03-25T20:05:47.864Z,99858.91
2019-03-25T20:08:18.814Z,99862.81
2019-03-25T20:10:49.799Z,99862.81
2019-03-25T20:15:59.102Z,99855.89
2019-03-25T20:18:30.438Z,99857.70
2019-03-25T20:21:09.063Z,99857.25
2019-03-25T20:30:53.193Z,99850.16
2019-03-25T20:33:26.874Z,99857.59
2019-03-25T20:35:58.095Z,99853.83
2019-03-25T20:38:29.429Z,99853.02
2019-03-25T20:41:00.260Z,99855.98
2019-03-25T20:43:31.747Z,99853.69
2019-03-25T20:46:02.669Z,99831.40
2019-03-25T20:48:33.598Z,99856.44
2019-03-25T20:51:04.523Z,99857.09
2019-03-25T20:53:35.679Z,99857.09
2019-03-25T20:56:06.811Z,99859.24
2019-03-25T20:58:38.111Z,99856.11
2019-03-25T21:01:09.610Z,99853.08
2019-03-25T21:03:40.713Z,99853.08
2019-03-25T21:06:11.861Z,99854.94
2019-03-25T21:08:42.785Z,99852.92
2019-03-25T21:11:13.638Z,99845.25
2019-03-25T21:13:44.741Z,99849.60
2019-03-25T21:16:15.874Z,99846.06
2019-03-25T21:18:46.832Z,99845.78
2019-03-25T21:21:18.102Z,99854.88
2019-03-25T21:23:49.238Z,99851.89
2019-03-25T21:26:20.515Z,99843.82
2019-03-25T21:28:51.587Z,99839.44
2019-03-25T21:31:22.831Z,99856.18
2019-03-25T21:33:53.936Z,99859.86
2019-03-25T21:36:25.412Z,99853.30
2019-03-25T21:38:56.480Z,99852.05
2019-03-25T21:41:31.412Z,99852.05
2019-03-25T21:44:02.343Z,99856.37
2019-03-25T21:46:33.269Z,99854.98
2019-03-25T21:49:04.615Z,99854.98
2019-03-25T21:51:35.757Z,99855.82
2019-03-25T21:54:07.038Z,99855.82
2019-03-25T21:56:38.157Z,99860.56
2019-03-25T21:59:09.039Z,99860.56
2019-03-25T22:01:40.211Z,99863.08
2019-03-25T22:04:11.349Z,99863.08
2019-03-25T22:06:42.419Z,99857.90
2019-03-25T22:09:13.906Z,99859.50
2019-03-25T22:11:45.561Z,99859.50
2019-03-25T22:14:16.734Z,99855.30
2019-03-25T22:16:48.152Z,99855.30
2019-03-25T22:19:20.049Z,99855.09
2019-03-25T22:21:51.433Z,99853.23
2019-03-25T22:24:23.037Z,99854.65
2019-03-25T22:26:54.382Z,99859.29
2019-03-25T22:29:25.824Z,99859.29
2019-03-25T22:31:57.092Z,99859.64
2019-03-25T22:34:30.384Z,99856.82
2019-03-25T22:37:01.858Z,99856.82
2019-03-25T22:39:33.124Z,99858.86
2019-03-25T22:42:04.234Z,99854.38
2019-03-25T22:44:35.610Z,99863.14
2019-03-25T22:47:08.182Z,99845.75
2019-03-25T22:49:40.160Z,99845.75
2019-03-25T22:52:11.224Z,99861.63
2019-03-25T22:54:42.225Z,99855.44
2019-03-25T22:57:14.197Z,99850.41
2019-03-25T22:59:45.254Z,99850.41
2019-03-25T23:02:16.611Z,99855.00
2019-03-25T23:04:47.754Z,99850.30
2019-03-25T23:07:20.098Z,99855.84
2019-03-25T23:09:51.377Z,99850.17
2019-03-25T23:12:23.712Z,99858.45
2019-03-25T23:14:54.675Z,99852.91
2019-03-25T23:17:25.612Z,99841.86
2019-03-25T23:19:57.074Z,99841.86
2019-03-25T23:22:28.245Z,99855.45
2019-03-25T23:24:59.386Z,99849.94
2019-03-25T23:27:30.769Z,99852.84
2019-03-25T23:30:01.658Z,99847.94
2019-03-25T23:32:32.632Z,99853.88
2019-03-25T23:35:03.821Z,99863.22
2019-03-25T23:37:35.293Z,99855.63
2019-03-25T23:40:06.906Z,99855.63
2019-03-25T23:42:38.088Z,99862.95
2019-03-25T23:45:09.523Z,99849.22
2019-03-25T23:47:40.571Z,99849.22
2019-03-25T23:50:11.965Z,99856.03
2019-03-25T23:52:42.874Z,99852.23
2019-03-25T23:55:13.932Z,99841.30
2019-03-25T23:57:45.225Z,99858.11
